Kampville Court, Missouri
Current Conditions -  °F | °C
As of 5:54 PM on Tuesday 25 Nov 2014 (Local Time) from KSET Reporting Station
Clear Clear  
Wind Chill:   Ceiling: Unl
Heat Index:   Visibility: 10mi
Dew Point: -3°   Wind: 3mph
Humidity: 82%   Direction: 140°SE
Pressure: 30.17"   Gusts: NA
Location:  38.8615°N, 90.4548°W
Report Text: KSET 252354Z AUTO 14003KT 10SM CLR 00/M03 A3017 RMK AO2 SLP219 T00001028 10039 20000 53006
Loading
Personal Weather Stations






























Interactive Weather Map New forecast layout! Learn more

10-Day Weather Forecast

Advertisements
Track Severe Weather on mobile